Moore, Texas
Current Conditions -  °F | °C
As of 10:15 PM on Monday 22 Dec 2014 (Local Time) from KCVB Reporting Station
Clear Clear  
Wind Chill: 55°   Ceiling: Unl
Heat Index: 55°   Visibility: 10mi
Dew Point: 49°   Wind: 3mph
Humidity: 81%   Direction: 140°SE
Pressure: 29.66"   Gusts: NA
Location:  29.06°N, 99.01°W
Report Text: KCVB 230415Z AUTO 14003KT 10SM CLR 13/09 A2966 RMK AO2 T01260094
Loading
Personal Weather Stations






























Interactive Weather Map New forecast layout! Learn more

10-Day Weather Forecast

Advertisements
Track Severe Weather on mobile